sensor_id;sensor_type;location;lat;lon;timestamp;pressure;altitude;pressure_sealevel;temperature;humidity
18988;BME280;5494;51.796;10.952;2022-11-15T00:02:40;98613.97;;;9.87;93.39
18988;BME280;5494;51.796;10.952;2022-11-15T00:05:28;98611.97;;;9.92;93.92
18988;BME280;5494;51.796;10.952;2022-11-15T00:08:16;98598.97;;;9.92;93.30
18988;BME280;5494;51.796;10.952;2022-11-15T00:11:03;98608.44;;;9.93;93.14
18988;BME280;5494;51.796;10.952;2022-11-15T00:13:50;98604.94;;;9.94;93.18
18988;BME280;5494;51.796;10.952;2022-11-15T00:16:39;98602.25;;;9.96;93.61
18988;BME280;5494;51.796;10.952;2022-11-15T00:19:26;98593.44;;;9.98;93.41
18988;BME280;5494;51.796;10.952;2022-11-15T00:22:13;98597.06;;;9.96;93.42
18988;BME280;5494;51.796;10.952;2022-11-15T00:24:59;98595.06;;;10.01;93.05
18988;BME280;5494;51.796;10.952;2022-11-15T00:27:47;98593.72;;;9.94;93.45
18988;BME280;5494;51.796;10.952;2022-11-15T00:30:34;98602.25;;;9.96;93.50
18988;BME280;5494;51.796;10.952;2022-11-15T00:33:23;98595.13;;;9.99;93.99
18988;BME280;5494;51.796;10.952;2022-11-15T00:36:10;98589.94;;;9.99;93.87
18988;BME280;5494;51.796;10.952;2022-11-15T00:38:57;98600.75;;;10.07;94.20
18988;BME280;5494;51.796;10.952;2022-11-15T00:41:44;98595.22;;;10.13;93.49
18988;BME280;5494;51.796;10.952;2022-11-15T00:44:31;98578.88;;;10.11;93.66
18988;BME280;5494;51.796;10.952;2022-11-15T00:47:18;98590.78;;;10.15;94.16
18988;BME280;5494;51.796;10.952;2022-11-15T00:50:07;98581.56;;;10.25;94.12
18988;BME280;5494;51.796;10.952;2022-11-15T00:52:59;98569.06;;;10.32;94.25
18988;BME280;5494;51.796;10.952;2022-11-15T00:55:47;98561.13;;;10.35;94.21
18988;BME280;5494;51.796;10.952;2022-11-15T00:58:33;98554.56;;;10.44;94.55
18988;BME280;5494;51.796;10.952;2022-11-15T01:01:21;98556.16;;;10.46;94.07
18988;BME280;5494;51.796;10.952;2022-11-15T01:04:08;98544.88;;;10.61;94.08
18988;BME280;5494;51.796;10.952;2022-11-15T01:06:56;98553.44;;;10.63;93.58
18988;BME280;5494;51.796;10.952;2022-11-15T01:09:44;98556.59;;;10.69;93.20
18988;BME280;5494;51.796;10.952;2022-11-15T01:12:31;98546.69;;;10.75;93.65
18988;BME280;5494;51.796;10.952;2022-11-15T01:15:18;98549.75;;;10.82;93.35
18988;BME280;5494;51.796;10.952;2022-11-15T01:18:05;98549.13;;;10.92;92.37
18988;BME280;5494;51.796;10.952;2022-11-15T01:20:52;98532.41;;;10.96;92.49
18988;BME280;5494;51.796;10.952;2022-11-15T01:23:41;98546.53;;;10.92;92.50
18988;BME280;5494;51.796;10.952;2022-11-15T01:26:28;98539.22;;;10.99;92.35
18988;BME280;5494;51.796;10.952;2022-11-15T01:29:15;98546.53;;;11.06;91.60
18988;BME280;5494;51.796;10.952;2022-11-15T01:32:02;98540.41;;;11.07;91.88
18988;BME280;5494;51.796;10.952;2022-11-15T01:34:50;98533.81;;;11.02;91.84
18988;BME280;5494;51.796;10.952;2022-11-15T01:37:37;98538.44;;;10.97;92.03
18988;BME280;5494;51.796;10.952;2022-11-15T01:40:25;98541.50;;;10.89;91.92
18988;BME280;5494;51.796;10.952;2022-11-15T01:43:21;98550.22;;;10.88;91.71
18988;BME280;5494;51.796;10.952;2022-11-15T01:46:25;98553.03;;;10.85;91.97
18988;BME280;5494;51.796;10.952;2022-11-15T01:49:19;98546.31;;;10.81;92.04
18988;BME280;5494;51.796;10.952;2022-11-15T01:52:10;98544.06;;;10.75;92.38
18988;BME280;5494;51.796;10.952;2022-11-15T01:55:06;98554.09;;;10.81;91.93
18988;BME280;5494;51.796;10.952;2022-11-15T01:58:02;98557.50;;;10.68;92.30
18988;BME280;5494;51.796;10.952;2022-11-15T02:00:52;98551.22;;;10.72;92.58
18988;BME280;5494;51.796;10.952;2022-11-15T02:03:47;98550.72;;;10.65;92.55
18988;BME280;5494;51.796;10.952;2022-11-15T02:06:39;98563.81;;;10.63;92.43
18988;BME280;5494;51.796;10.952;2022-11-15T02:09:27;98557.94;;;10.60;93.13
18988;BME280;5494;51.796;10.952;2022-11-15T02:12:18;98556.81;;;10.50;93.16
18988;BME280;5494;51.796;10.952;2022-11-15T02:15:09;98553.13;;;10.38;93.94
18988;BME280;5494;51.796;10.952;2022-11-15T02:18:09;98554.81;;;10.39;93.98
18988;BME280;5494;51.796;10.952;2022-11-15T02:21:14;98542.84;;;10.37;93.90
18988;BME280;5494;51.796;10.952;2022-11-15T02:24:55;98542.59;;;10.25;94.87
18988;BME280;5494;51.796;10.952;2022-11-15T02:28:27;98541.97;;;10.22;95.52
18988;BME280;5494;51.796;10.952;2022-11-15T02:31:27;98533.56;;;10.17;95.69
18988;BME280;5494;51.796;10.952;2022-11-15T02:34:25;98528.03;;;10.07;96.15
18988;BME280;5494;51.796;10.952;2022-11-15T02:37:21;98528.03;;;10.07;96.52
18988;BME280;5494;51.796;10.952;2022-11-15T02:40:24;98522.84;;;10.07;96.53
18988;BME280;5494;51.796;10.952;2022-11-15T02:43:22;98528.19;;;10.04;96.75
18988;BME280;5494;51.796;10.952;2022-11-15T02:46:38;98523.59;;;10.09;96.26
18988;BME280;5494;51.796;10.952;2022-11-15T02:49:48;98511.34;;;10.11;96.56
18988;BME280;5494;51.796;10.952;2022-11-15T02:52:36;98524.34;;;10.11;96.21
18988;BME280;5494;51.796;10.952;2022-11-15T02:55:30;98502.63;;;10.12;96.88
18988;BME280;5494;51.796;10.952;2022-11-15T02:58:46;98507.91;;;10.26;96.83
18988;BME280;5494;51.796;10.952;2022-11-15T03:01:53;98511.69;;;10.37;95.66
18988;BME280;5494;51.796;10.952;2022-11-15T03:04:51;98514.78;;;10.27;96.05
18988;BME280;5494;51.796;10.952;2022-11-15T03:07:50;98500.13;;;10.26;95.80
18988;BME280;5494;51.796;10.952;2022-11-15T03:10:58;98515.88;;;10.23;96.16
18988;BME280;5494;51.796;10.952;2022-11-15T03:13:57;98516.63;;;10.25;96.12
18988;BME280;5494;51.796;10.952;2022-11-15T03:16:52;98515.44;;;10.31;95.59
18988;BME280;5494;51.796;10.952;2022-11-15T03:19:47;98528.28;;;10.34;94.88
18988;BME280;5494;51.796;10.952;2022-11-15T03:22:39;98526.88;;;10.29;95.09
18988;BME280;5494;51.796;10.952;2022-11-15T03:25:29;98530.38;;;10.27;95.60
18988;BME280;5494;51.796;10.952;2022-11-15T03:28:23;98536.81;;;10.36;94.91
18988;BME280;5494;51.796;10.952;2022-11-15T03:31:15;98531.97;;;10.30;95.11
18988;BME280;5494;51.796;10.952;2022-11-15T03:34:28;98529.03;;;10.36;94.46
18988;BME280;5494;51.796;10.952;2022-11-15T03:37:20;98540.09;;;10.24;94.80
18988;BME280;5494;51.796;10.952;2022-11-15T03:40:10;98530.06;;;10.02;95.49
18988;BME280;5494;51.796;10.952;2022-11-15T03:43:05;98531.06;;;10.00;96.11
18988;BME280;5494;51.796;10.952;2022-11-15T03:45:59;98532.47;;;10.05;95.91
18988;BME280;5494;51.796;10.952;2022-11-15T03:48:53;98529.22;;;9.86;96.69
18988;BME280;5494;51.796;10.952;2022-11-15T03:51:45;98523.88;;;9.73;97.14
18988;BME280;5494;51.796;10.952;2022-11-15T03:54:32;98521.69;;;9.66;97.46
18988;BME280;5494;51.796;10.952;2022-11-15T03:57:19;98525.19;;;9.65;98.18
18988;BME280;5494;51.796;10.952;2022-11-15T04:00:08;98518.66;;;9.58;98.29
18988;BME280;5494;51.796;10.952;2022-11-15T04:02:55;98529.19;;;9.55;98.58
18988;BME280;5494;51.796;10.952;2022-11-15T04:05:42;98517.00;;;9.57;98.32
18988;BME280;5494;51.796;10.952;2022-11-15T04:08:30;98497.41;;;9.67;98.04
18988;BME280;5494;51.796;10.952;2022-11-15T04:11:17;98493.47;;;9.75;97.85
18988;BME280;5494;51.796;10.952;2022-11-15T04:14:04;98502.44;;;9.85;97.58
18988;BME280;5494;51.796;10.952;2022-11-15T04:16:52;98504.75;;;9.90;97.18
18988;BME280;5494;51.796;10.952;2022-11-15T04:19:38;98498.50;;;9.94;96.92
18988;BME280;5494;51.796;10.952;2022-11-15T04:22:43;98502.50;;;10.00;96.91
18988;BME280;5494;51.796;10.952;2022-11-15T04:25:53;98513.63;;;10.02;96.40
18988;BME280;5494;51.796;10.952;2022-11-15T04:28:40;98509.94;;;10.06;96.16
18988;BME280;5494;51.796;10.952;2022-11-15T04:31:41;98501.78;;;10.12;96.07
18988;BME280;5494;51.796;10.952;2022-11-15T04:34:28;98498.19;;;10.14;96.15
18988;BME280;5494;51.796;10.952;2022-11-15T04:37:16;98511.50;;;10.24;95.53
18988;BME280;5494;51.796;10.952;2022-11-15T04:40:03;98504.41;;;10.27;94.90
18988;BME280;5494;51.796;10.952;2022-11-15T04:42:52;98500.97;;;10.27;95.16
18988;BME280;5494;51.796;10.952;2022-11-15T04:45:47;98501.44;;;10.34;94.85
18988;BME280;5494;51.796;10.952;2022-11-15T04:48:33;98500.44;;;10.36;95.15
18988;BME280;5494;51.796;10.952;2022-11-15T04:51:21;98505.53;;;10.38;94.31
18988;BME280;5494;51.796;10.952;2022-11-15T04:54:08;98502.94;;;10.38;94.42
18988;BME280;5494;51.796;10.952;2022-11-15T04:56:55;98504.44;;;10.42;94.10
18988;BME280;5494;51.796;10.952;2022-11-15T04:59:43;98504.53;;;10.40;94.29
18988;BME280;5494;51.796;10.952;2022-11-15T05:02:30;98506.47;;;10.37;94.11
18988;BME280;5494;51.796;10.952;2022-11-15T05:05:31;98504.06;;;10.34;94.55
18988;BME280;5494;51.796;10.952;2022-11-15T05:08:18;98506.72;;;10.32;93.62
18988;BME280;5494;51.796;10.952;2022-11-15T05:11:06;98508.47;;;10.32;93.99
18988;BME280;5494;51.796;10.952;2022-11-15T05:13:53;98507.16;;;10.24;94.07
18988;BME280;5494;51.796;10.952;2022-11-15T05:16:43;98497.88;;;10.20;94.42
18988;BME280;5494;51.796;10.952;2022-11-15T05:19:30;98497.03;;;10.20;94.60
18988;BME280;5494;51.796;10.952;2022-11-15T05:22:17;98497.03;;;10.20;94.62
18988;BME280;5494;51.796;10.952;2022-11-15T05:25:06;98495.22;;;10.22;94.65
18988;BME280;5494;51.796;10.952;2022-11-15T05:27:53;98490.94;;;10.21;94.87
18988;BME280;5494;51.796;10.952;2022-11-15T05:30:41;98490.84;;;10.22;95.06
18988;BME280;5494;51.796;10.952;2022-11-15T05:33:29;98493.50;;;10.37;95.00
18988;BME280;5494;51.796;10.952;2022-11-15T05:36:27;98510.56;;;10.41;94.67
18988;BME280;5494;51.796;10.952;2022-11-15T05:39:14;98514.16;;;10.38;95.10
18988;BME280;5494;51.796;10.952;2022-11-15T05:42:06;98509.44;;;10.45;94.96
18988;BME280;5494;51.796;10.952;2022-11-15T05:44:54;98527.31;;;10.51;94.03
18988;BME280;5494;51.796;10.952;2022-11-15T05:47:41;98532.53;;;10.35;93.83
18988;BME280;5494;51.796;10.952;2022-11-15T05:50:31;98537.41;;;10.25;94.18
18988;BME280;5494;51.796;10.952;2022-11-15T05:53:21;98540.78;;;10.27;93.76
18988;BME280;5494;51.796;10.952;2022-11-15T05:56:10;98540.84;;;10.10;93.94
18988;BME280;5494;51.796;10.952;2022-11-15T05:58:58;98539.59;;;10.02;94.51
18988;BME280;5494;51.796;10.952;2022-11-15T06:01:46;98536.09;;;9.87;95.07
18988;BME280;5494;51.796;10.952;2022-11-15T06:04:33;98540.09;;;9.77;95.87
18988;BME280;5494;51.796;10.952;2022-11-15T06:07:21;98537.91;;;9.69;95.79
18988;BME280;5494;51.796;10.952;2022-11-15T06:10:09;98544.28;;;9.64;96.58
18988;BME280;5494;51.796;10.952;2022-11-15T06:12:57;98547.78;;;9.63;96.54
18988;BME280;5494;51.796;10.952;2022-11-15T06:15:44;98542.44;;;9.66;96.39
18988;BME280;5494;51.796;10.952;2022-11-15T06:18:32;98543.53;;;9.62;96.77
18988;BME280;5494;51.796;10.952;2022-11-15T06:21:20;98549.03;;;9.56;97.05
18988;BME280;5494;51.796;10.952;2022-11-15T06:24:08;98557.19;;;9.65;97.53
18988;BME280;5494;51.796;10.952;2022-11-15T06:26:55;98557.94;;;9.83;95.74
18988;BME280;5494;51.796;10.952;2022-11-15T06:29:43;98559.69;;;9.67;96.08
18988;BME280;5494;51.796;10.952;2022-11-15T06:32:30;98562.72;;;9.59;96.72
18988;BME280;5494;51.796;10.952;2022-11-15T06:35:17;98559.00;;;9.63;96.64
18988;BME280;5494;51.796;10.952;2022-11-15T06:38:07;98555.44;;;9.66;96.64
18988;BME280;5494;51.796;10.952;2022-11-15T06:41:02;98567.56;;;9.65;96.30
18988;BME280;5494;51.796;10.952;2022-11-15T06:43:49;98564.53;;;9.57;96.37
18988;BME280;5494;51.796;10.952;2022-11-15T06:46:36;98573.31;;;9.55;96.87
18988;BME280;5494;51.796;10.952;2022-11-15T06:49:24;98574.41;;;9.51;96.84
18988;BME280;5494;51.796;10.952;2022-11-15T06:52:10;98564.03;;;9.51;97.50
18988;BME280;5494;51.796;10.952;2022-11-15T06:54:57;98569.91;;;9.70;96.56
18988;BME280;5494;51.796;10.952;2022-11-15T06:57:51;98571.44;;;9.74;96.41
18988;BME280;5494;51.796;10.952;2022-11-15T07:00:39;98581.16;;;9.86;95.88
18988;BME280;5494;51.796;10.952;2022-11-15T07:03:26;98577.72;;;10.01;94.91
18988;BME280;5494;51.796;10.952;2022-11-15T07:06:13;98585.66;;;10.14;94.07
18988;BME280;5494;51.796;10.952;2022-11-15T07:09:02;98591.47;;;10.35;93.12
18988;BME280;5494;51.796;10.952;2022-11-15T07:11:49;98589.56;;;10.52;92.24
18988;BME280;5494;51.796;10.952;2022-11-15T07:14:38;98590.53;;;10.65;90.69
18988;BME280;5494;51.796;10.952;2022-11-15T07:17:25;98589.03;;;10.77;90.72
18988;BME280;5494;51.796;10.952;2022-11-15T07:20:13;98584.81;;;11.04;89.29
18988;BME280;5494;51.796;10.952;2022-11-15T07:23:01;98594.50;;;11.17;88.33
18988;BME280;5494;51.796;10.952;2022-11-15T07:25:49;98586.53;;;11.34;87.27
18988;BME280;5494;51.796;10.952;2022-11-15T07:28:36;98583.72;;;11.51;85.74
18988;BME280;5494;51.796;10.952;2022-11-15T07:31:25;98580.97;;;11.54;85.63
18988;BME280;5494;51.796;10.952;2022-11-15T07:34:13;98589.03;;;11.50;85.61
18988;BME280;5494;51.796;10.952;2022-11-15T07:37:00;98587.16;;;11.66;85.27
18988;BME280;5494;51.796;10.952;2022-11-15T07:39:47;98587.66;;;11.87;84.27
18988;BME280;5494;51.796;10.952;2022-11-15T07:42:34;98581.75;;;11.97;84.20
18988;BME280;5494;51.796;10.952;2022-11-15T07:45:42;98584.00;;;12.30;82.74
18988;BME280;5494;51.796;10.952;2022-11-15T07:48:31;98576.47;;;12.52;82.16
18988;BME280;5494;51.796;10.952;2022-11-15T07:51:29;98569.66;;;12.77;80.39
18988;BME280;5494;51.796;10.952;2022-11-15T07:54:16;98565.47;;;13.14;79.12
18988;BME280;5494;51.796;10.952;2022-11-15T07:57:04;98566.81;;;13.32;77.90
18988;BME280;5494;51.796;10.952;2022-11-15T07:59:53;98563.75;;;13.51;76.81
18988;BME280;5494;51.796;10.952;2022-11-15T08:02:40;98559.97;;;14.04;76.04
18988;BME280;5494;51.796;10.952;2022-11-15T08:05:29;98551.75;;;14.57;73.33
18988;BME280;5494;51.796;10.952;2022-11-15T08:08:17;98560.00;;;14.75;71.75
18988;BME280;5494;51.796;10.952;2022-11-15T08:11:04;98552.44;;;14.59;72.06
18988;BME280;5494;51.796;10.952;2022-11-15T08:13:51;98537.59;;;15.06;71.00
18988;BME280;5494;51.796;10.952;2022-11-15T08:16:38;98533.97;;;15.53;69.83
18988;BME280;5494;51.796;10.952;2022-11-15T08:19:25;98525.72;;;15.47;68.47
18988;BME280;5494;51.796;10.952;2022-11-15T08:22:14;98521.56;;;15.66;67.87
18988;BME280;5494;51.796;10.952;2022-11-15T08:25:01;98517.66;;;16.15;67.25
18988;BME280;5494;51.796;10.952;2022-11-15T08:27:51;98514.19;;;16.46;65.71
18988;BME280;5494;51.796;10.952;2022-11-15T08:30:41;98513.56;;;16.54;64.94
18988;BME280;5494;51.796;10.952;2022-11-15T08:33:29;98511.75;;;17.07;63.97
18988;BME280;5494;51.796;10.952;2022-11-15T08:36:17;98501.66;;;17.33;61.28
18988;BME280;5494;51.796;10.952;2022-11-15T08:39:06;98502.19;;;17.27;61.26
18988;BME280;5494;51.796;10.952;2022-11-15T08:41:53;98506.44;;;16.98;62.59
18988;BME280;5494;51.796;10.952;2022-11-15T08:44:40;98502.06;;;17.28;61.70
18988;BME280;5494;51.796;10.952;2022-11-15T08:47:27;98504.44;;;17.41;61.12
18988;BME280;5494;51.796;10.952;2022-11-15T08:50:15;98502.81;;;17.19;61.80
18988;BME280;5494;51.796;10.952;2022-11-15T08:53:06;98512.78;;;16.95;61.98
18988;BME280;5494;51.796;10.952;2022-11-15T08:55:55;98504.03;;;17.15;62.44
18988;BME280;5494;51.796;10.952;2022-11-15T08:58:42;98512.91;;;17.14;62.78
18988;BME280;5494;51.796;10.952;2022-11-15T09:01:29;98505.69;;;17.67;61.55
18988;BME280;5494;51.796;10.952;2022-11-15T09:04:16;98509.59;;;17.92;60.14
18988;BME280;5494;51.796;10.952;2022-11-15T09:07:03;98522.00;;;18.30;59.15
18988;BME280;5494;51.796;10.952;2022-11-15T09:09:50;98510.94;;;18.56;57.45
18988;BME280;5494;51.796;10.952;2022-11-15T09:12:39;98507.72;;;18.04;58.83
18988;BME280;5494;51.796;10.952;2022-11-15T09:15:26;98510.75;;;18.28;58.00
18988;BME280;5494;51.796;10.952;2022-11-15T09:18:13;98508.97;;;18.09;58.62
18988;BME280;5494;51.796;10.952;2022-11-15T09:21:00;98504.38;;;18.02;58.88
18988;BME280;5494;51.796;10.952;2022-11-15T09:23:50;98502.81;;;17.19;61.11
18988;BME280;5494;51.796;10.952;2022-11-15T09:26:38;98503.50;;;16.91;62.15
18988;BME280;5494;51.796;10.952;2022-11-15T09:29:26;98497.19;;;17.03;62.46
18988;BME280;5494;51.796;10.952;2022-11-15T09:32:13;98491.75;;;16.95;62.83
18988;BME280;5494;51.796;10.952;2022-11-15T09:35:00;98493.50;;;16.64;63.51
18988;BME280;5494;51.796;10.952;2022-11-15T09:37:47;98497.97;;;16.52;63.62
18988;BME280;5494;51.796;10.952;2022-11-15T09:40:41;98498.25;;;16.70;64.19
18988;BME280;5494;51.796;10.952;2022-11-15T09:43:38;98494.00;;;16.58;63.25
18988;BME280;5494;51.796;10.952;2022-11-15T09:46:45;98493.75;;;16.29;65.13
18988;BME280;5494;51.796;10.952;2022-11-15T09:49:35;98487.56;;;16.62;63.90
18988;BME280;5494;51.796;10.952;2022-11-15T09:52:14;98493.72;;;16.40;64.49
18988;BME280;5494;51.796;10.952;2022-11-15T09:54:47;98494.41;;;16.42;64.29
18988;BME280;5494;51.796;10.952;2022-11-15T09:57:27;98490.56;;;16.99;62.79
18988;BME280;5494;51.796;10.952;2022-11-15T10:00:13;98484.44;;;17.19;61.73
18988;BME280;5494;51.796;10.952;2022-11-15T10:03:12;98484.75;;;17.36;60.82
18988;BME280;5494;51.796;10.952;2022-11-15T10:05:44;98479.44;;;17.47;60.21
18988;BME280;5494;51.796;10.952;2022-11-15T10:08:31;98469.63;;;17.49;60.92
18988;BME280;5494;51.796;10.952;2022-11-15T10:11:06;98476.09;;;17.75;59.43
18988;BME280;5494;51.796;10.952;2022-11-15T10:13:59;98465.16;;;17.40;60.29
18988;BME280;5494;51.796;10.952;2022-11-15T10:17:02;98457.19;;;17.60;59.86
18988;BME280;5494;51.796;10.952;2022-11-15T10:19:48;98464.72;;;17.35;61.12
18988;BME280;5494;51.796;10.952;2022-11-15T10:22:27;98468.09;;;17.46;60.75
18988;BME280;5494;51.796;10.952;2022-11-15T10:25:22;98460.97;;;17.27;61.62
18988;BME280;5494;51.796;10.952;2022-11-15T10:27:56;98463.44;;;17.29;61.65
18988;BME280;5494;51.796;10.952;2022-11-15T10:30:33;98457.28;;;17.40;61.55
18988;BME280;5494;51.796;10.952;2022-11-15T10:33:17;98456.84;;;17.75;60.93
18988;BME280;5494;51.796;10.952;2022-11-15T10:36:17;98458.13;;;18.09;59.30
18988;BME280;5494;51.796;10.952;2022-11-15T10:39:11;98459.94;;;17.89;59.63
18988;BME280;5494;51.796;10.952;2022-11-15T10:41:42;98450.25;;;17.50;60.97
18988;BME280;5494;51.796;10.952;2022-11-15T10:44:24;98452.63;;;17.53;61.49
18988;BME280;5494;51.796;10.952;2022-11-15T10:47:23;98448.13;;;17.74;60.55
18988;BME280;5494;51.796;10.952;2022-11-15T10:49:58;98444.56;;;17.94;60.32
18988;BME280;5494;51.796;10.952;2022-11-15T10:52:31;98431.81;;;17.90;60.10
18988;BME280;5494;51.796;10.952;2022-11-15T10:55:22;98436.25;;;17.40;62.12
18988;BME280;5494;51.796;10.952;2022-11-15T10:57:54;98438.31;;;17.36;62.08
18988;BME280;5494;51.796;10.952;2022-11-15T11:00:30;98432.22;;;17.36;62.15
18988;BME280;5494;51.796;10.952;2022-11-15T11:03:03;98427.72;;;17.07;63.33
18988;BME280;5494;51.796;10.952;2022-11-15T11:05:35;98424.56;;;17.13;63.33
18988;BME280;5494;51.796;10.952;2022-11-15T11:08:24;98427.25;;;17.02;63.54
18988;BME280;5494;51.796;10.952;2022-11-15T11:10:54;98424.03;;;17.19;63.34
18988;BME280;5494;51.796;10.952;2022-11-15T11:13:31;98415.59;;;17.25;63.39
18988;BME280;5494;51.796;10.952;2022-11-15T11:16:34;98414.81;;;17.35;62.72
18988;BME280;5494;51.796;10.952;2022-11-15T11:19:23;98415.56;;;17.56;61.78
18988;BME280;5494;51.796;10.952;2022-11-15T11:22:05;98417.59;;;17.52;61.92
18988;BME280;5494;51.796;10.952;2022-11-15T11:24:49;98408.41;;;17.87;61.32
18988;BME280;5494;51.796;10.952;2022-11-15T11:27:38;98412.47;;;17.91;60.79
18988;BME280;5494;51.796;10.952;2022-11-15T11:30:17;98406.50;;;17.89;60.77
18988;BME280;5494;51.796;10.952;2022-11-15T11:33:12;98400.84;;;17.44;62.14
18988;BME280;5494;51.796;10.952;2022-11-15T11:35:57;98396.13;;;17.38;63.17
18988;BME280;5494;51.796;10.952;2022-11-15T11:38:51;98392.44;;;17.59;61.61
18988;BME280;5494;51.796;10.952;2022-11-15T11:41:41;98396.56;;;17.43;62.70
18988;BME280;5494;51.796;10.952;2022-11-15T11:44:25;98400.00;;;17.33;63.07
18988;BME280;5494;51.796;10.952;2022-11-15T11:47:00;98391.41;;;17.31;62.90
18988;BME280;5494;51.796;10.952;2022-11-15T11:49:39;98386.00;;;17.14;63.01
18988;BME280;5494;51.796;10.952;2022-11-15T11:52:16;98384.81;;;16.97;64.36
18988;BME280;5494;51.796;10.952;2022-11-15T11:55:00;98394.59;;;16.85;64.94
18988;BME280;5494;51.796;10.952;2022-11-15T11:57:41;98385.56;;;16.78;65.61
18988;BME280;5494;51.796;10.952;2022-11-15T12:00:18;98385.44;;;16.80;65.40
18988;BME280;5494;51.796;10.952;2022-11-15T12:03:03;98387.19;;;16.70;66.01
18988;BME280;5494;51.796;10.952;2022-11-15T12:05:38;98382.22;;;16.76;65.23
18988;BME280;5494;51.796;10.952;2022-11-15T12:08:27;98381.00;;;16.60;66.51
18988;BME280;5494;51.796;10.952;2022-11-15T12:11:08;98377.94;;;16.54;66.50
18988;BME280;5494;51.796;10.952;2022-11-15T12:13:42;98385.13;;;16.52;66.50
18988;BME280;5494;51.796;10.952;2022-11-15T12:16:16;98378.34;;;16.50;66.64
18988;BME280;5494;51.796;10.952;2022-11-15T12:18:50;98377.91;;;16.45;66.73
18988;BME280;5494;51.796;10.952;2022-11-15T12:21:30;98372.78;;;16.23;66.74
18988;BME280;5494;51.796;10.952;2022-11-15T12:24:08;98378.53;;;16.17;67.12
18988;BME280;5494;51.796;10.952;2022-11-15T12:26:47;98375.59;;;16.10;66.93
18988;BME280;5494;51.796;10.952;2022-11-15T12:29:25;98367.97;;;16.07;67.02
18988;BME280;5494;51.796;10.952;2022-11-15T12:31:56;98375.22;;;16.14;66.80
18988;BME280;5494;51.796;10.952;2022-11-15T12:34:43;98374.66;;;16.11;67.06
18988;BME280;5494;51.796;10.952;2022-11-15T12:37:47;98367.66;;;16.00;67.79
18988;BME280;5494;51.796;10.952;2022-11-15T12:40:33;98363.75;;;15.95;67.61
18988;BME280;5494;51.796;10.952;2022-11-15T12:43:36;98362.97;;;15.83;68.34
18988;BME280;5494;51.796;10.952;2022-11-15T12:46:18;98369.41;;;15.79;68.73
18988;BME280;5494;51.796;10.952;2022-11-15T12:48:55;98369.28;;;15.81;68.77
18988;BME280;5494;51.796;10.952;2022-11-15T12:52:04;98371.31;;;15.77;68.55
18988;BME280;5494;51.796;10.952;2022-11-15T12:54:57;98356.03;;;15.61;69.39
18988;BME280;5494;51.796;10.952;2022-11-15T12:57:41;98358.91;;;15.47;69.85
18988;BME280;5494;51.796;10.952;2022-11-15T13:00:39;98361.13;;;15.52;69.97
18988;BME280;5494;51.796;10.952;2022-11-15T13:03:28;98359.47;;;15.51;69.78
18988;BME280;5494;51.796;10.952;2022-11-15T13:06:09;98358.91;;;15.47;69.92
18988;BME280;5494;51.796;10.952;2022-11-15T13:08:57;98358.06;;;15.58;69.44
18988;BME280;5494;51.796;10.952;2022-11-15T13:11:48;98359.59;;;15.49;70.19
18988;BME280;5494;51.796;10.952;2022-11-15T13:14:45;98359.19;;;15.33;70.72
18988;BME280;5494;51.796;10.952;2022-11-15T13:17:31;98355.03;;;15.19;71.39
18988;BME280;5494;51.796;10.952;2022-11-15T13:20:25;98352.75;;;15.15;71.66
18988;BME280;5494;51.796;10.952;2022-11-15T13:23:07;98347.63;;;15.24;70.95
18988;BME280;5494;51.796;10.952;2022-11-15T13:26:08;98349.69;;;15.21;71.41
18988;BME280;5494;51.796;10.952;2022-11-15T13:28:44;98347.19;;;15.08;71.95
18988;BME280;5494;51.796;10.952;2022-11-15T13:31:30;98344.00;;;15.05;71.43
18988;BME280;5494;51.796;10.952;2022-11-15T13:34:20;98342.09;;;14.95;71.11
18988;BME280;5494;51.796;10.952;2022-11-15T13:37:29;98335.53;;;15.01;70.93
18988;BME280;5494;51.796;10.952;2022-11-15T13:40:28;98328.50;;;15.02;71.28
18988;BME280;5494;51.796;10.952;2022-11-15T13:42:58;98328.75;;;15.21;70.42
18988;BME280;5494;51.796;10.952;2022-11-15T13:45:26;98331.31;;;15.32;69.13
18988;BME280;5494;51.796;10.952;2022-11-15T13:47:57;98323.63;;;15.19;69.99
18988;BME280;5494;51.796;10.952;2022-11-15T13:50:31;98320.38;;;15.27;69.68
18988;BME280;5494;51.796;10.952;2022-11-15T13:53:04;98317.06;;;15.25;69.49
18988;BME280;5494;51.796;10.952;2022-11-15T13:55:33;98312.75;;;15.35;68.97
18988;BME280;5494;51.796;10.952;2022-11-15T13:58:04;98312.25;;;15.30;69.67
18988;BME280;5494;51.796;10.952;2022-11-15T14:00:37;98302.75;;;15.29;69.79
18988;BME280;5494;51.796;10.952;2022-11-15T14:03:16;98310.16;;;15.24;70.00
18988;BME280;5494;51.796;10.952;2022-11-15T14:06:04;98298.72;;;15.25;69.56
18988;BME280;5494;51.796;10.952;2022-11-15T14:08:36;98292.28;;;15.29;68.93
18988;BME280;5494;51.796;10.952;2022-11-15T14:11:12;98296.09;;;15.25;67.99
18988;BME280;5494;51.796;10.952;2022-11-15T14:13:42;98289.91;;;15.26;68.47
18988;BME280;5494;51.796;10.952;2022-11-15T14:16:35;98291.19;;;15.31;67.92
18988;BME280;5494;51.796;10.952;2022-11-15T14:19:06;98291.94;;;15.22;68.44
18988;BME280;5494;51.796;10.952;2022-11-15T14:21:35;98289.03;;;15.36;66.97
18988;BME280;5494;51.796;10.952;2022-11-15T14:24:20;98282.91;;;15.26;67.80
18988;BME280;5494;51.796;10.952;2022-11-15T14:26:49;98289.94;;;15.15;69.11
18988;BME280;5494;51.796;10.952;2022-11-15T14:29:25;98281.88;;;14.95;70.10
18988;BME280;5494;51.796;10.952;2022-11-15T14:32:10;98284.09;;;14.79;71.19
18988;BME280;5494;51.796;10.952;2022-11-15T14:34:40;98275.38;;;14.68;71.65
18988;BME280;5494;51.796;10.952;2022-11-15T14:37:22;98270.66;;;14.62;71.37
18988;BME280;5494;51.796;10.952;2022-11-15T14:39:53;98273.84;;;14.54;70.93
18988;BME280;5494;51.796;10.952;2022-11-15T14:42:23;98269.09;;;14.48;70.87
18988;BME280;5494;51.796;10.952;2022-11-15T14:44:52;98275.75;;;14.30;70.79
18988;BME280;5494;51.796;10.952;2022-11-15T14:47:20;98272.16;;;14.19;70.80
18988;BME280;5494;51.796;10.952;2022-11-15T14:49:49;98273.56;;;14.12;71.03
18988;BME280;5494;51.796;10.952;2022-11-15T14:52:26;98267.41;;;14.13;70.60